createdAt,value
2018-09-09T00:00:52.141Z,98980.00
2018-09-09T00:03:20.657Z,98981.13
2018-09-09T00:05:49.624Z,98982.24
2018-09-09T00:08:18.091Z,98976.98
2018-09-09T00:10:46.590Z,98977.39
2018-09-09T00:13:15.238Z,98978.05
2018-09-09T00:15:43.784Z,98981.02
2018-09-09T00:18:13.410Z,98984.59
2018-09-09T00:20:41.846Z,98985.48
2018-09-09T00:23:10.299Z,98983.88
2018-09-09T00:25:38.860Z,98988.52
2018-09-09T00:28:07.287Z,98989.41
2018-09-09T00:30:36.033Z,98986.27
2018-09-09T00:33:04.506Z,98988.34
2018-09-09T00:35:33.014Z,98993.17
2018-09-09T00:38:01.506Z,98987.22
2018-09-09T00:40:29.978Z,98982.47
2018-09-09T00:42:58.485Z,98991.13
2018-09-09T00:45:26.950Z,98994.66
2018-09-09T00:47:55.438Z,98999.92
2018-09-09T00:50:29.151Z,99000.34
2018-09-09T00:53:03.025Z,99002.56
2018-09-09T00:55:31.539Z,99004.91
2018-09-09T00:58:00.090Z,99003.45
2018-09-09T01:00:33.833Z,98998.92
2018-09-09T01:03:02.304Z,99003.45
2018-09-09T01:05:30.795Z,99000.53
2018-09-09T01:07:59.266Z,99003.60
2018-09-09T01:10:27.721Z,99004.34
2018-09-09T01:12:56.449Z,99006.06
2018-09-09T01:15:24.897Z,99010.58
2018-09-09T01:17:53.433Z,99010.23
2018-09-09T01:20:22.058Z,99014.26
2018-09-09T01:22:51.101Z,99013.91
2018-09-09T01:25:19.542Z,99017.55
2018-09-09T01:27:48.041Z,99016.74
2018-09-09T01:30:16.517Z,99011.11
2018-09-09T01:32:45.047Z,99019.69
2018-09-09T01:35:13.879Z,99023.59
2018-09-09T01:37:42.630Z,99023.70
2018-09-09T01:40:11.125Z,99019.45
2018-09-09T01:42:39.694Z,99024.81
2018-09-09T01:45:08.145Z,99022.86
2018-09-09T01:47:36.625Z,99027.62
2018-09-09T01:50:05.230Z,99029.22
2018-09-09T01:52:33.688Z,99031.93
2018-09-09T01:55:02.227Z,99027.29
2018-09-09T01:57:30.756Z,99027.55
2018-09-09T01:59:59.201Z,99021.69
2018-09-09T02:02:27.708Z,99018.91
2018-09-09T02:04:56.220Z,99021.45
2018-09-09T02:07:24.693Z,99020.98
2018-09-09T02:09:53.129Z,99018.20
2018-09-09T02:12:21.669Z,99017.92
2018-09-09T02:14:50.272Z,99027.69
2018-09-09T02:17:18.697Z,99028.18
2018-09-09T02:19:47.189Z,99029.40
2018-09-09T02:22:15.647Z,99036.84
2018-09-09T02:24:44.146Z,99028.30
2018-09-09T02:27:12.798Z,99025.23
2018-09-09T02:29:41.322Z,99024.05
2018-09-09T02:32:09.773Z,99027.70
2018-09-09T02:34:38.282Z,99033.20
2018-09-09T02:37:06.831Z,99039.67
2018-09-09T02:39:35.385Z,99031.88
2018-09-09T02:42:03.806Z,99038.23
2018-09-09T02:44:32.409Z,99036.51
2018-09-09T02:47:00.964Z,99041.39
2018-09-09T02:49:29.504Z,99038.22
2018-09-09T02:51:57.931Z,99040.18
2018-09-09T02:54:26.450Z,99038.45
2018-09-09T02:56:54.937Z,99039.09
2018-09-09T02:59:23.409Z,99046.73
2018-09-09T03:01:52.050Z,99036.77
2018-09-09T03:04:20.563Z,99039.70
2018-09-09T03:06:49.382Z,99036.64
2018-09-09T03:09:17.849Z,99037.26
2018-09-09T03:11:46.307Z,99040.17
2018-09-09T03:14:14.838Z,99048.72
2018-09-09T03:16:43.293Z,99047.63
2018-09-09T03:19:11.825Z,99046.89
2018-09-09T03:21:40.325Z,99039.60
2018-09-09T03:24:08.853Z,99043.23
2018-09-09T03:26:37.318Z,99044.81
2018-09-09T03:29:05.917Z,99042.39
2018-09-09T03:31:34.364Z,99036.45
2018-09-09T03:34:02.853Z,99035.09
2018-09-09T03:36:31.319Z,99041.27
2018-09-09T03:38:59.933Z,99035.91
2018-09-09T03:41:28.338Z,99038.59
2018-09-09T03:43:56.795Z,99047.37
2018-09-09T03:46:25.254Z,99046.53
2018-09-09T03:48:53.716Z,99049.42
2018-09-09T03:51:22.230Z,99043.82
2018-09-09T03:53:51.281Z,99043.22
2018-09-09T03:56:19.801Z,99043.58
2018-09-09T03:58:48.254Z,99043.96
2018-09-09T04:01:16.773Z,99043.47
2018-09-09T04:03:45.606Z,99037.38
2018-09-09T04:06:14.374Z,99038.08
2018-09-09T04:08:42.802Z,99031.77
2018-09-09T04:11:12.387Z,99033.71
2018-09-09T04:13:43.099Z,99028.98
2018-09-09T04:16:12.803Z,99027.75
2018-09-09T04:18:42.448Z,99032.27
2018-09-09T04:21:10.969Z,99033.00
2018-09-09T04:23:39.585Z,99034.70
2018-09-09T04:26:08.021Z,99033.71
2018-09-09T04:28:36.591Z,99037.38
2018-09-09T04:31:05.201Z,99033.71
2018-09-09T04:33:33.658Z,99031.91
2018-09-09T04:36:02.161Z,99025.21
2018-09-09T04:38:30.673Z,99031.77
2018-09-09T04:40:59.121Z,99037.38
2018-09-09T04:43:27.588Z,99037.87
2018-09-09T04:45:56.111Z,99034.06
2018-09-09T04:48:24.618Z,99030.54
2018-09-09T04:50:53.085Z,99035.75
2018-09-09T04:53:21.515Z,99039.41
2018-09-09T04:55:50.474Z,99031.58
2018-09-09T04:58:18.911Z,99037.08
2018-09-09T05:00:47.372Z,99041.84
2018-09-09T05:03:15.890Z,99043.08
2018-09-09T05:05:44.353Z,99047.09
2018-09-09T05:08:12.899Z,99050.02
2018-09-09T05:10:41.430Z,99054.39
2018-09-09T05:13:09.956Z,99058.79
2018-09-09T05:15:38.438Z,99055.73
2018-09-09T05:18:06.885Z,99057.91
2018-09-09T05:20:35.325Z,99058.05
2018-09-09T05:23:03.837Z,99052.70
2018-09-09T05:25:32.322Z,99061.48
2018-09-09T05:28:00.801Z,99061.48
2018-09-09T05:30:29.250Z,99065.39
2018-09-09T05:32:57.770Z,99069.16
2018-09-09T05:35:26.229Z,99070.25
2018-09-09T05:37:54.717Z,99071.34
2018-09-09T05:40:23.169Z,99070.87
2018-09-09T05:42:52.147Z,99072.81
2018-09-09T05:45:20.562Z,99079.52
2018-09-09T05:47:49.140Z,99076.40
2018-09-09T05:50:17.742Z,99084.19
2018-09-09T05:52:46.242Z,99086.63
2018-09-09T05:55:14.683Z,99087.11
2018-09-09T05:57:43.214Z,99090.87
2018-09-09T06:00:11.823Z,99091.72
2018-09-09T06:02:40.226Z,99090.74
2018-09-09T06:05:08.814Z,99095.34
2018-09-09T06:07:37.298Z,99098.62
2018-09-09T06:10:05.986Z,99096.92
2018-09-09T06:12:34.470Z,99102.73
2018-09-09T06:15:02.970Z,99100.03
2018-09-09T06:17:31.453Z,99102.55
2018-09-09T06:19:59.937Z,99099.44
2018-09-09T06:22:28.582Z,99106.24
2018-09-09T06:24:57.522Z,99105.10
2018-09-09T06:27:26.034Z,99111.43
2018-09-09T06:29:54.473Z,99110.44
2018-09-09T06:32:22.932Z,99114.05
2018-09-09T06:34:52.081Z,99115.70
2018-09-09T06:37:20.539Z,99110.62
2018-09-09T06:39:49.086Z,99107.88
2018-09-09T06:42:17.771Z,99106.09
2018-09-09T06:44:46.195Z,99111.87
2018-09-09T06:47:14.645Z,99106.27
2018-09-09T06:49:43.170Z,99109.84
2018-09-09T06:52:11.594Z,99115.27
2018-09-09T06:54:40.118Z,99111.17
2018-09-09T06:57:08.565Z,99111.41
2018-09-09T06:59:37.065Z,99116.50
2018-09-09T07:02:05.541Z,99117.59
2018-09-09T07:04:34.017Z,99120.56
2018-09-09T07:07:02.523Z,99114.23
2018-09-09T07:09:30.933Z,99119.48
2018-09-09T07:11:59.371Z,99115.80
2018-09-09T07:14:27.906Z,99119.13
2018-09-09T07:16:56.363Z,99123.30
2018-09-09T07:19:24.822Z,99122.80
2018-09-09T07:21:53.289Z,99124.31
2018-09-09T07:24:21.747Z,99129.03
2018-09-09T07:26:50.526Z,99129.47
2018-09-09T07:29:18.918Z,99120.87
2018-09-09T07:31:47.413Z,99128.20
2018-09-09T07:34:15.925Z,99122.48
2018-09-09T07:36:44.447Z,99127.48
2018-09-09T07:39:12.910Z,99130.45
2018-09-09T07:41:41.359Z,99131.70
2018-09-09T07:44:09.825Z,99126.77
2018-09-09T07:46:38.321Z,99133.49
2018-09-09T07:49:06.969Z,99131.81
2018-09-09T07:51:35.417Z,99131.42
2018-09-09T07:54:03.931Z,99129.45
2018-09-09T07:56:32.557Z,99126.18
2018-09-09T07:59:01.174Z,99129.88
2018-09-09T08:01:29.613Z,99128.83
2018-09-09T08:03:58.083Z,99127.40
2018-09-09T08:06:26.650Z,99127.00
2018-09-09T08:08:55.050Z,99126.39
2018-09-09T08:11:27.730Z,99122.84
2018-09-09T08:13:56.127Z,99121.20
2018-09-09T08:16:24.637Z,99124.09
2018-09-09T08:18:53.149Z,99123.00
2018-09-09T08:21:21.582Z,99125.45
2018-09-09T08:23:50.563Z,99129.42
2018-09-09T08:26:19.061Z,99132.52
2018-09-09T08:28:47.512Z,99133.77
2018-09-09T08:31:16.037Z,99134.69
2018-09-09T08:33:44.541Z,99134.20
2018-09-09T08:36:13.410Z,99128.97
2018-09-09T08:38:41.838Z,99130.17
2018-09-09T08:41:10.391Z,99128.81
2018-09-09T08:43:38.877Z,99128.50
2018-09-09T08:46:07.381Z,99122.39
2018-09-09T08:48:36.078Z,99123.90
2018-09-09T08:51:04.686Z,99117.26
2018-09-09T08:53:33.201Z,99123.31
2018-09-09T08:56:01.626Z,99125.60
2018-09-09T08:58:30.123Z,99127.22
2018-09-09T09:00:58.656Z,99124.97
2018-09-09T09:03:27.085Z,99128.45
2018-09-09T09:05:55.570Z,99122.95
2018-09-09T09:08:24.053Z,99123.90
2018-09-09T09:10:52.646Z,99125.14
2018-09-09T09:13:21.124Z,99128.44
2018-09-09T09:15:49.629Z,99127.01
2018-09-09T09:18:18.073Z,99117.82
2018-09-09T09:20:46.536Z,99119.88
2018-09-09T09:23:15.085Z,99112.69
2018-09-09T09:25:48.899Z,99116.14
2018-09-09T09:28:17.433Z,99116.92
2018-09-09T09:30:46.124Z,99109.69
2018-09-09T09:33:14.685Z,99109.31
2018-09-09T09:35:48.187Z,99109.86
2018-09-09T09:38:17.542Z,99096.67
2018-09-09T09:40:46.006Z,99103.16
2018-09-09T09:43:14.509Z,99106.30
2018-09-09T09:45:43.325Z,99102.74
2018-09-09T09:48:11.854Z,99108.36
2018-09-09T09:50:40.303Z,99109.67
2018-09-09T09:53:08.834Z,99113.16
2018-09-09T09:55:37.589Z,99101.41
2018-09-09T09:58:06.189Z,99096.73
2018-09-09T10:00:39.827Z,99098.77
2018-09-09T10:03:08.271Z,99104.09
2018-09-09T10:05:36.907Z,99104.26
2018-09-09T10:08:05.817Z,99101.74
2018-09-09T10:10:34.414Z,99100.03
2018-09-09T10:13:03.007Z,99101.47
2018-09-09T10:15:31.469Z,99100.02
2018-09-09T10:17:59.949Z,99103.05
2018-09-09T10:20:28.495Z,99100.84
2018-09-09T10:22:56.909Z,99097.25
2018-09-09T10:25:25.425Z,99096.92
2018-09-09T10:27:53.897Z,99091.69
2018-09-09T10:30:22.452Z,99083.91
2018-09-09T10:32:51.734Z,99088.84
2018-09-09T10:35:20.253Z,99082.66
2018-09-09T10:37:48.697Z,99081.78
2018-09-09T10:40:17.145Z,99076.16
2018-09-09T10:42:45.575Z,99078.60
2018-09-09T10:45:14.209Z,99079.27
2018-09-09T10:47:42.662Z,99079.75
2018-09-09T10:50:11.406Z,99077.31
2018-09-09T10:52:39.801Z,99076.66
2018-09-09T10:55:08.333Z,99073.18
2018-09-09T10:57:36.794Z,99071.40
2018-09-09T11:00:05.869Z,99069.20
2018-09-09T11:02:34.347Z,99064.70
2018-09-09T11:05:02.867Z,99065.97
2018-09-09T11:07:31.297Z,99066.19
2018-09-09T11:09:59.706Z,99067.44
2018-09-09T11:12:30.079Z,99054.92
2018-09-09T11:14:59.838Z,99049.81
2018-09-09T11:17:29.131Z,99047.66
2018-09-09T11:19:58.130Z,99044.25
2018-09-09T11:22:27.205Z,99045.77
2018-09-09T11:24:55.732Z,99050.74
2018-09-09T11:27:24.530Z,99056.59
2018-09-09T11:29:53.115Z,99060.91
2018-09-09T11:32:21.589Z,99050.45
2018-09-09T11:34:50.277Z,99043.11
2018-09-09T11:37:18.731Z,99051.75
2018-09-09T11:39:47.753Z,99047.23
2018-09-09T11:42:16.281Z,99054.98
2018-09-09T11:44:44.834Z,99055.00
2018-09-09T11:47:13.263Z,99054.43
2018-09-09T11:49:41.769Z,99044.42
2018-09-09T11:52:10.189Z,99044.32
2018-09-09T11:54:38.716Z,99037.56
2018-09-09T11:57:07.334Z,99040.06
2018-09-09T11:59:35.918Z,99037.02
2018-09-09T12:02:04.406Z,99035.63
2018-09-09T12:04:32.846Z,99032.83
2018-09-09T12:07:01.340Z,99033.20
2018-09-09T12:09:29.834Z,99036.64
2018-09-09T12:11:58.373Z,99033.23
2018-09-09T12:14:26.867Z,99027.97
2018-09-09T12:16:55.402Z,99036.78
2018-09-09T12:19:24.315Z,99033.71
2018-09-09T12:21:52.985Z,99028.74
2018-09-09T12:24:21.684Z,99032.25
2018-09-09T12:26:51.214Z,99031.50
2018-09-09T12:29:19.869Z,99032.48
2018-09-09T12:31:48.314Z,99036.08
2018-09-09T12:34:16.801Z,99036.10
2018-09-09T12:36:45.377Z,99035.60
2018-09-09T12:39:13.942Z,99024.25
2018-09-09T12:41:42.433Z,99028.99
2018-09-09T12:44:16.174Z,99026.50
2018-09-09T12:46:50.202Z,99023.94
2018-09-09T12:49:18.578Z,99021.56
2018-09-09T12:51:47.005Z,99016.92
2018-09-09T12:54:15.513Z,99011.70
2018-09-09T12:56:43.997Z,99015.98
2018-09-09T12:59:12.528Z,99014.77
2018-09-09T13:01:41.073Z,99014.22
2018-09-09T13:04:09.633Z,99011.94
2018-09-09T13:06:38.149Z,99014.03
2018-09-09T13:09:07.985Z,99018.64
2018-09-09T13:11:36.423Z,99012.94
2018-09-09T13:14:05.057Z,99007.74
2018-09-09T13:16:33.458Z,99016.10
2018-09-09T13:19:01.954Z,99011.36
2018-09-09T13:21:30.425Z,99006.03
2018-09-09T13:23:58.890Z,99002.23
2018-09-09T13:26:27.379Z,98999.46
2018-09-09T13:28:55.865Z,98996.92
2018-09-09T13:31:24.333Z,99003.97
2018-09-09T13:33:52.941Z,98999.03
2018-09-09T13:36:21.418Z,98999.23
2018-09-09T13:38:50.625Z,98998.22
2018-09-09T13:41:19.357Z,98999.63
2018-09-09T13:43:47.849Z,98990.98
2018-09-09T13:46:16.377Z,98990.40
2018-09-09T13:48:44.897Z,98991.53
2018-09-09T13:51:13.700Z,98995.34
2018-09-09T13:53:42.127Z,98982.94
2018-09-09T13:56:10.586Z,98980.00
2018-09-09T13:58:39.087Z,98977.00
2018-09-09T14:01:07.559Z,98982.91
2018-09-09T14:03:36.106Z,98976.90
2018-09-09T14:06:04.530Z,98971.24
2018-09-09T14:08:33.026Z,98975.91
2018-09-09T14:11:01.478Z,98966.05
2018-09-09T14:13:30.053Z,98969.63
2018-09-09T14:15:58.586Z,98968.67
2018-09-09T14:18:27.205Z,98967.80
2018-09-09T14:20:55.665Z,98964.42
2018-09-09T14:23:24.441Z,98959.38
2018-09-09T14:25:52.993Z,98956.02
2018-09-09T14:28:21.514Z,98955.39
2018-09-09T14:30:50.488Z,98959.84
2018-09-09T14:33:18.975Z,98959.94
2018-09-09T14:35:47.467Z,98954.03
2018-09-09T14:38:15.970Z,98959.51
2018-09-09T14:40:44.414Z,98956.34
2018-09-09T14:43:13.050Z,98955.72
2018-09-09T14:45:41.527Z,98946.91
2018-09-09T14:48:09.979Z,98950.63
2018-09-09T14:50:38.426Z,98946.70
2018-09-09T14:53:07.044Z,98933.87
2018-09-09T14:55:35.489Z,98938.44
2018-09-09T14:58:04.037Z,98940.34
2018-09-09T15:00:32.502Z,98945.22
2018-09-09T15:03:00.917Z,98942.05
2018-09-09T15:05:29.465Z,98939.13
2018-09-09T15:07:57.921Z,98933.31
2018-09-09T15:10:26.386Z,98923.70
2018-09-09T15:12:54.870Z,98927.92
2018-09-09T15:15:23.339Z,98926.67
2018-09-09T15:17:52.303Z,98932.95
2018-09-09T15:20:20.740Z,98927.13
2018-09-09T15:22:49.765Z,98924.47
2018-09-09T15:25:18.302Z,98928.78
2018-09-09T15:27:46.835Z,98933.34
2018-09-09T15:30:15.634Z,98928.96
2018-09-09T15:32:44.106Z,98918.20
2018-09-09T15:35:12.678Z,98925.30
2018-09-09T15:37:41.273Z,98916.96
2018-09-09T15:40:09.805Z,98931.25
2018-09-09T15:42:38.289Z,98924.56
2018-09-09T15:45:06.845Z,98920.95
2018-09-09T15:47:35.341Z,98922.81
2018-09-09T15:50:03.897Z,98920.20
2018-09-09T15:52:32.302Z,98921.08
2018-09-09T15:55:00.849Z,98924.30
2018-09-09T15:57:29.298Z,98921.75
2018-09-09T15:59:58.642Z,98925.39
2018-09-09T16:02:27.157Z,98915.09
2018-09-09T16:04:55.570Z,98910.20
2018-09-09T16:07:24.118Z,98914.44
2018-09-09T16:09:52.794Z,98907.38
2018-09-09T16:12:21.334Z,98907.41
2018-09-09T16:14:51.583Z,98909.77
2018-09-09T16:17:20.122Z,98905.50
2018-09-09T16:19:48.636Z,98902.13
2018-09-09T16:22:17.038Z,98907.86
2018-09-09T16:24:45.730Z,98916.30
2018-09-09T16:27:14.469Z,98918.31
2018-09-09T16:29:43.102Z,98905.33
2018-09-09T16:32:11.646Z,98911.69
2018-09-09T16:34:40.057Z,98915.75
2018-09-09T16:37:08.657Z,98908.65
2018-09-09T16:39:37.203Z,98911.50
2018-09-09T16:42:05.668Z,98911.51
2018-09-09T16:44:34.110Z,98905.08
2018-09-09T16:47:02.799Z,98903.34
2018-09-09T16:49:31.305Z,98901.56
2018-09-09T16:51:59.821Z,98901.91
2018-09-09T16:54:28.254Z,98889.56
2018-09-09T16:56:56.751Z,98890.63
2018-09-09T16:59:25.435Z,98887.94
2018-09-09T17:01:53.922Z,98889.89
2018-09-09T17:04:22.799Z,98892.45
2018-09-09T17:06:52.506Z,98889.92
2018-09-09T17:09:20.982Z,98888.24
2018-09-09T17:11:49.530Z,98887.97
2018-09-09T17:14:17.947Z,98884.19
2018-09-09T17:16:46.454Z,98881.56
2018-09-09T17:19:15.048Z,98882.68
2018-09-09T17:21:43.557Z,98889.89
2018-09-09T17:24:11.971Z,98883.18
2018-09-09T17:26:40.473Z,98887.34
2018-09-09T17:29:08.932Z,98892.98
2018-09-09T17:31:37.430Z,98896.53
2018-09-09T17:34:05.971Z,98898.05
2018-09-09T17:36:34.509Z,98899.20
2018-09-09T17:39:02.969Z,98896.60
2018-09-09T17:41:31.462Z,98900.64
2018-09-09T17:43:59.966Z,98896.41
2018-09-09T17:46:28.489Z,98904.59
2018-09-09T17:48:56.975Z,98904.27
2018-09-09T17:51:25.505Z,98905.09
2018-09-09T17:53:53.965Z,98906.86
2018-09-09T17:56:22.446Z,98904.12
2018-09-09T17:58:51.129Z,98904.73
2018-09-09T18:01:19.782Z,98917.02
2018-09-09T18:03:48.442Z,98912.36
2018-09-09T18:06:17.125Z,98918.13
2018-09-09T18:08:45.835Z,98912.47
2018-09-09T18:11:14.318Z,98911.63
2018-09-09T18:13:42.946Z,98920.98
2018-09-09T18:16:11.443Z,98921.17
2018-09-09T18:18:40.073Z,98922.66
2018-09-09T18:21:08.869Z,98917.56
2018-09-09T18:23:37.576Z,98923.31
2018-09-09T18:26:06.992Z,98932.92
2018-09-09T18:28:35.447Z,98930.25
2018-09-09T18:31:03.957Z,98940.77
2018-09-09T18:33:32.777Z,98937.31
2018-09-09T18:36:01.267Z,98939.92
2018-09-09T18:38:30.006Z,98942.78
2018-09-09T18:40:58.526Z,98943.25
2018-09-09T18:43:27.142Z,98941.60
2018-09-09T18:45:55.625Z,98946.44
2018-09-09T18:48:24.326Z,98946.86
2018-09-09T18:50:53.455Z,98956.86
2018-09-09T18:53:22.130Z,98956.00
2018-09-09T18:55:51.639Z,98964.19
2018-09-09T18:58:20.229Z,98960.48
2018-09-09T19:00:48.671Z,98964.08
2018-09-09T19:03:17.370Z,98963.78
2018-09-09T19:05:45.857Z,98968.06
2018-09-09T19:08:14.562Z,98971.87
2018-09-09T19:10:43.184Z,98971.56
2018-09-09T19:13:11.614Z,98973.92
2018-09-09T19:15:40.298Z,98982.75
2018-09-09T19:18:08.793Z,98978.00
2018-09-09T19:20:37.518Z,98980.97
2018-09-09T19:23:05.950Z,98977.79
2018-09-09T19:25:34.557Z,98978.88
2018-09-09T19:28:03.029Z,98983.85
2018-09-09T19:30:31.549Z,98984.05
2018-09-09T19:33:00.034Z,98988.48
2018-09-09T19:35:28.484Z,98984.27
2018-09-09T19:37:57.326Z,98989.70
2018-09-09T19:40:25.833Z,98996.81
2018-09-09T19:42:54.454Z,99002.77
2018-09-09T19:45:23.030Z,99001.06
2018-09-09T19:47:52.110Z,99003.27
2018-09-09T19:50:20.592Z,98999.72
2018-09-09T19:52:49.159Z,98998.33
2018-09-09T19:55:17.796Z,99001.36
2018-09-09T19:57:46.450Z,98999.48
2018-09-09T20:00:15.205Z,99005.08
2018-09-09T20:02:43.855Z,99007.09
2018-09-09T20:05:12.390Z,99019.10
2018-09-09T20:07:41.336Z,99020.80
2018-09-09T20:10:09.899Z,99018.05
2018-09-09T20:12:38.330Z,99016.86
2018-09-09T20:15:06.877Z,99016.20
2018-09-09T20:17:35.301Z,99024.47
2018-09-09T20:20:03.986Z,99030.55
2018-09-09T20:22:32.455Z,99027.50
2018-09-09T20:25:01.058Z,99029.67
2018-09-09T20:27:29.534Z,99032.50
2018-09-09T20:29:58.026Z,99037.37
2018-09-09T20:32:26.594Z,99030.90
2018-09-09T20:34:55.126Z,99037.59
2018-09-09T20:37:23.555Z,99040.19
2018-09-09T20:39:52.313Z,99033.86
2018-09-09T20:42:20.726Z,99041.41
2018-09-09T20:44:49.358Z,99045.64
2018-09-09T20:47:17.791Z,99050.22
2018-09-09T20:49:46.306Z,99054.27
2018-09-09T20:52:14.792Z,99060.27
2018-09-09T20:54:43.286Z,99061.52
2018-09-09T20:57:11.726Z,99058.89
2018-09-09T20:59:40.181Z,99061.34
2018-09-09T21:02:08.878Z,99066.16
2018-09-09T21:04:38.098Z,99063.97
2018-09-09T21:07:06.731Z,99066.98
2018-09-09T21:09:35.209Z,99068.43
2018-09-09T21:12:03.649Z,99078.20
2018-09-09T21:14:32.122Z,99079.66
2018-09-09T21:17:00.609Z,99077.89
2018-09-09T21:19:30.510Z,99081.09
2018-09-09T21:21:59.453Z,99075.50
2018-09-09T21:24:28.059Z,99084.56
2018-09-09T21:26:57.646Z,99084.19
2018-09-09T21:29:26.079Z,99088.86
2018-09-09T21:31:54.561Z,99089.26
2018-09-09T21:34:23.838Z,99095.30
2018-09-09T21:36:53.278Z,99099.06
2018-09-09T21:39:22.666Z,99097.83
2018-09-09T21:41:51.406Z,99105.55
2018-09-09T21:44:19.840Z,99100.67
2018-09-09T21:46:49.006Z,99100.91
2018-09-09T21:49:17.686Z,99098.52
2018-09-09T21:51:47.113Z,99099.66
2018-09-09T21:54:15.610Z,99100.81
2018-09-09T21:56:44.485Z,99101.75
2018-09-09T21:59:13.002Z,99102.39
2018-09-09T22:01:46.885Z,99095.24
2018-09-09T22:04:16.358Z,99093.69
2018-09-09T22:06:44.878Z,99101.17
2018-09-09T22:09:13.382Z,99107.16
2018-09-09T22:11:41.836Z,99104.09
2018-09-09T22:14:10.313Z,99101.70
2018-09-09T22:16:38.849Z,99099.59
2018-09-09T22:19:07.553Z,99099.23
2018-09-09T22:21:35.969Z,99100.88
2018-09-09T22:24:04.429Z,99108.09
2018-09-09T22:26:32.965Z,99114.42
2018-09-09T22:29:01.373Z,99121.11
2018-09-09T22:31:29.753Z,99118.25
2018-09-09T22:33:58.228Z,99124.23
2018-09-09T22:36:26.813Z,99117.08
2018-09-09T22:38:55.234Z,99116.02
2018-09-09T22:41:23.705Z,99113.45
2018-09-09T22:43:53.117Z,99107.56
2018-09-09T22:46:21.683Z,99103.27
2018-09-09T22:48:50.448Z,99107.22
2018-09-09T22:51:18.859Z,99109.83
2018-09-09T22:53:47.358Z,99105.74
2018-09-09T22:56:16.171Z,99108.72
2018-09-09T22:58:44.641Z,99108.06
2018-09-09T23:01:13.657Z,99115.09
2018-09-09T23:03:42.105Z,99117.27
2018-09-09T23:06:10.571Z,99109.20
2018-09-09T23:08:39.149Z,99110.70
2018-09-09T23:11:07.682Z,99108.64
2018-09-09T23:13:36.150Z,99110.56
2018-09-09T23:16:04.625Z,99114.30
2018-09-09T23:18:33.127Z,99113.03
2018-09-09T23:21:01.631Z,99112.59
2018-09-09T23:23:30.070Z,99110.10
2018-09-09T23:25:58.521Z,99111.73
2018-09-09T23:28:27.078Z,99113.58
2018-09-09T23:30:55.505Z,99112.70
2018-09-09T23:33:23.977Z,99111.86
2018-09-09T23:35:52.785Z,99105.63
2018-09-09T23:38:21.309Z,99112.21
2018-09-09T23:40:49.806Z,99113.06
2018-09-09T23:43:18.282Z,99109.47
2018-09-09T23:45:46.700Z,99114.14
2018-09-09T23:48:15.221Z,99115.84
2018-09-09T23:50:43.678Z,99114.09
2018-09-09T23:53:12.109Z,99108.02
2018-09-09T23:55:40.518Z,99107.59
2018-09-09T23:58:08.973Z,99103.17
